Time;durP1;ratioP1;P1;durP2;ratioP2;P2;SDS_P1;SDS_P2;PMS_P1;PMS_P2;Temp;Humidity;BMP_temperature;BMP_pressure;BME280_temperature;BME280_humidity;BME280_pressure;Samples;Min_cycle;Max_cycle;Signal;HPM_P1;HPM_P2
2021/05/07 00:02:16;;;;;;;11.48;6.70;;;;;;;6.07;80.15;99694.53;5052820;28;20128;-71
2021/05/07 00:04:44;;;;;;;8.68;6.40;;;;;;;6.12;79.68;99697.72;5037516;28;20079;-71
2021/05/07 00:07:10;;;;;;;8.18;5.55;;;;;;;6.54;78.60;99696.28;5052527;28;20486;-71
2021/05/07 00:09:37;;;;;;;9.20;6.18;;;;;;;6.53;78.58;99697.22;5065335;28;20048;-71
2021/05/07 00:12:07;;;;;;;10.93;6.05;;;;;;;6.67;78.34;99697.25;5048286;28;20151;-70
2021/05/07 00:14:34;;;;;;;8.35;6.10;;;;;;;6.68;78.15;99695.47;5050580;28;20108;-72
2021/05/07 00:17:01;;;;;;;8.95;6.68;;;;;;;6.45;79.07;99695.03;5050609;28;20092;-70
2021/05/07 00:19:28;;;;;;;9.63;6.80;;;;;;;6.26;79.21;99694.34;5054812;28;20077;-70
2021/05/07 00:21:55;;;;;;;11.48;7.03;;;;;;;6.10;80.13;99689.16;5055977;28;20055;-70
2021/05/07 00:24:22;;;;;;;12.45;7.25;;;;;;;6.05;80.02;99689.41;5053653;28;20112;-71
2021/05/07 00:26:49;;;;;;;12.23;6.72;;;;;;;6.47;79.08;99692.31;5066613;28;20077;-70
2021/05/07 00:29:16;;;;;;;8.57;6.45;;;;;;;6.68;78.63;99688.47;5049068;28;20049;-71
2021/05/07 00:31:43;;;;;;;8.75;6.82;;;;;;;6.60;78.82;99695.91;5052723;28;20115;-70
2021/05/07 00:34:09;;;;;;;9.45;6.55;;;;;;;6.35;79.73;99693.88;5055004;28;20060;-71
2021/05/07 00:36:36;;;;;;;10.60;7.28;;;;;;;6.20;80.45;99695.53;5055001;28;20061;-72
2021/05/07 00:39:03;;;;;;;11.55;7.70;;;;;;;6.22;81.05;99691.09;5053232;28;20139;-72
2021/05/07 00:41:30;;;;;;;8.52;7.00;;;;;;;6.21;81.00;99688.53;5043802;28;20060;-72
2021/05/07 00:43:56;;;;;;;14.35;8.13;;;;;;;6.02;81.63;99680.88;5059216;28;20153;-71
2021/05/07 00:46:23;;;;;;;10.55;6.90;;;;;;;5.98;82.24;99680.22;5052767;28;20084;-71
2021/05/07 00:48:50;;;;;;;11.05;7.25;;;;;;;6.17;81.07;99674.84;5057236;28;20478;-73
2021/05/07 00:51:17;;;;;;;10.93;7.10;;;;;;;6.00;81.25;99675.75;5052649;28;20091;-72
2021/05/07 00:53:43;;;;;;;10.40;7.45;;;;;;;5.89;82.14;99675.44;5033743;28;20452;-72
2021/05/07 00:56:10;;;;;;;10.25;7.30;;;;;;;5.83;82.36;99666.19;5038876;28;20061;-72
2021/05/07 00:58:37;;;;;;;11.77;6.75;;;;;;;5.92;82.32;99670.09;5050451;28;20116;-72
2021/05/07 01:01:04;;;;;;;10.93;7.22;;;;;;;5.87;82.29;99673.88;5036134;28;20144;-73
2021/05/07 01:03:31;;;;;;;8.93;6.60;;;;;;;5.84;82.09;99680.94;5044269;28;20052;-72
2021/05/07 01:05:57;;;;;;;9.63;7.25;;;;;;;5.83;81.80;99676.63;5044053;28;20049;-71
2021/05/07 01:08:24;;;;;;;10.52;7.50;;;;;;;5.78;82.00;99677.81;5037809;28;20123;-72
2021/05/07 01:10:53;;;;;;;8.48;6.45;;;;;;;5.79;82.79;99669.06;5043002;28;20045;-72
2021/05/07 01:13:19;;;;;;;8.90;6.45;;;;;;;6.17;81.44;99676.56;5028101;28;20140;-72
2021/05/07 01:15:46;;;;;;;9.48;6.25;;;;;;;6.17;81.54;99679.19;5026589;28;20124;-72
2021/05/07 01:18:13;;;;;;;8.13;6.07;;;;;;;6.40;80.84;99675.31;5051369;28;20132;-72
2021/05/07 01:20:40;;;;;;;8.60;6.45;;;;;;;6.43;80.05;99681.19;5028544;28;20149;-73
2021/05/07 01:23:09;;;;;;;9.05;6.45;;;;;;;6.27;81.30;99677.75;5023990;28;20737;-72
2021/05/07 01:25:41;;;;;;;8.15;6.13;;;;;;;6.28;80.75;99675.06;5053101;28;20075;-72
2021/05/07 01:28:10;;;;;;;9.05;6.18;;;;;;;6.17;81.31;99671.34;5050047;28;20056;-71
2021/05/07 01:30:42;;;;;;;8.88;6.70;;;;;;;6.00;82.12;99673.16;5035067;28;20686;-71
2021/05/07 01:33:16;;;;;;;8.65;6.60;;;;;;;5.92;82.45;99675.31;5033118;28;20140;-72
2021/05/07 01:35:44;;;;;;;8.57;6.07;;;;;;;5.80;82.56;99665.50;5035817;28;20136;-72
2021/05/07 01:38:15;;;;;;;10.63;6.90;;;;;;;6.15;82.21;99673.22;5027906;28;20118;-73
2021/05/07 01:40:45;;;;;;;9.73;6.43;;;;;;;6.05;81.71;99659.81;5032494;28;20038;-72
2021/05/07 01:43:12;;;;;;;8.30;6.43;;;;;;;5.86;83.14;99654.75;5049395;28;20107;-72
2021/05/07 01:45:41;;;;;;;9.40;6.45;;;;;;;5.70;83.25;99662.56;5028508;28;20084;-72
2021/05/07 01:48:08;;;;;;;9.77;7.15;;;;;;;5.58;83.94;99665.81;5050871;28;20069;-71
2021/05/07 01:50:41;;;;;;;10.90;6.68;;;;;;;5.83;83.04;99666.19;5063698;28;20079;-72
2021/05/07 01:53:08;;;;;;;11.05;6.55;;;;;;;6.00;82.50;99670.53;5033070;28;20041;-72
2021/05/07 01:55:38;;;;;;;8.85;6.45;;;;;;;5.97;83.08;99668.06;5034744;28;20072;-73
2021/05/07 01:58:08;;;;;;;6.90;6.10;;;;;;;6.08;82.61;99670.13;5058364;28;20144;-74
2021/05/07 02:00:35;;;;;;;9.05;6.72;;;;;;;6.03;82.73;99670.38;5052704;28;20080;-72
2021/05/07 02:03:04;;;;;;;12.73;6.25;;;;;;;6.25;81.84;99666.53;5026533;28;20132;-72
2021/05/07 02:05:34;;;;;;;10.52;6.72;;;;;;;6.17;81.59;99666.13;5053461;28;20068;-72
2021/05/07 02:08:05;;;;;;;10.15;7.47;;;;;;;5.85;83.14;99666.09;5058171;28;20120;-72
2021/05/07 02:10:33;;;;;;;13.60;6.53;;;;;;;5.70;84.00;99674.78;5032125;28;20139;-72
2021/05/07 02:13:06;;;;;;;9.82;6.72;;;;;;;5.77;84.67;99666.53;5060250;28;20548;-72
2021/05/07 02:15:33;;;;;;;8.77;6.57;;;;;;;5.99;83.49;99665.38;5055680;28;20048;-72
2021/05/07 02:18:00;;;;;;;11.20;6.97;;;;;;;6.03;83.71;99661.66;5057021;28;20572;-71
2021/05/07 02:20:29;;;;;;;11.15;6.07;;;;;;;6.08;83.48;99659.66;5053332;28;20055;-71
2021/05/07 02:22:57;;;;;;;9.43;6.45;;;;;;;6.26;82.71;99661.25;5074359;28;20049;-72
2021/05/07 02:25:26;;;;;;;8.55;6.85;;;;;;;6.31;82.17;99658.38;5070294;28;20052;-71
2021/05/07 02:27:54;;;;;;;12.35;6.80;;;;;;;6.08;82.59;99655.28;5047096;28;20045;-71
2021/05/07 02:30:26;;;;;;;9.98;7.45;;;;;;;5.88;83.02;99655.50;5075778;28;20049;-71
2021/05/07 02:32:53;;;;;;;11.23;7.20;;;;;;;5.74;84.78;99656.25;5028651;28;20048;-70
2021/05/07 02:35:22;;;;;;;10.07;6.95;;;;;;;5.65;84.76;99655.91;5056735;28;20052;-71
2021/05/07 02:37:49;;;;;;;8.32;6.72;;;;;;;5.70;85.10;99657.34;5025988;28;20072;-72
2021/05/07 02:40:16;;;;;;;12.65;6.30;;;;;;;6.03;84.33;99654.69;5064559;28;20061;-72
2021/05/07 02:42:43;;;;;;;13.15;7.05;;;;;;;6.03;83.38;99640.75;5069996;28;20068;-71
2021/05/07 02:45:10;;;;;;;10.65;7.40;;;;;;;5.87;84.01;99639.91;5059395;28;20057;-70
2021/05/07 02:47:37;;;;;;;9.27;6.97;;;;;;;5.80;84.45;99642.00;5061449;28;20098;-70
2021/05/07 02:50:06;;;;;;;11.45;7.57;;;;;;;5.63;84.56;99644.69;5054572;28;20055;-72
2021/05/07 02:52:33;;;;;;;9.18;6.95;;;;;;;5.75;85.77;99642.25;5039385;28;20072;-71
2021/05/07 02:55:01;;;;;;;11.30;6.82;;;;;;;5.74;85.91;99648.41;5063095;28;20128;-74
2021/05/07 02:57:28;;;;;;;10.18;7.55;;;;;;;5.91;84.37;99644.88;5053185;28;20045;-70
2021/05/07 02:59:55;;;;;;;9.02;6.72;;;;;;;5.93;83.90;99650.88;5048986;28;20071;-72
2021/05/07 03:02:21;;;;;;;11.82;7.55;;;;;;;5.94;84.37;99649.94;5057545;28;22004;-71
2021/05/07 03:04:49;;;;;;;9.75;6.75;;;;;;;5.99;83.75;99647.09;5051023;28;20080;-71
2021/05/07 03:07:16;;;;;;;8.02;6.60;;;;;;;6.15;83.07;99645.31;5052498;28;20140;-73
2021/05/07 03:09:43;;;;;;;8.00;6.30;;;;;;;6.23;82.24;99648.34;5056840;28;20478;-71
2021/05/07 03:12:09;;;;;;;8.18;6.25;;;;;;;6.16;82.39;99651.38;5057114;28;20077;-71
2021/05/07 03:14:36;;;;;;;8.07;6.22;;;;;;;6.17;82.04;99650.44;5051167;28;20480;-72
2021/05/07 03:17:03;;;;;;;9.65;6.60;;;;;;;6.29;81.05;99645.38;5055470;28;20075;-74
2021/05/07 03:19:30;;;;;;;12.95;6.93;;;;;;;6.20;81.31;99655.50;5040304;28;20049;-72
2021/05/07 03:21:57;;;;;;;14.98;8.23;;;;;;;6.30;81.55;99649.69;5037333;28;20041;-70
2021/05/07 03:24:24;;;;;;;11.07;6.72;;;;;;;6.09;81.53;99653.50;5058024;28;20063;-72
2021/05/07 03:26:50;;;;;;;10.20;6.82;;;;;;;5.99;82.16;99660.16;5051829;28;20053;-71
2021/05/07 03:29:17;;;;;;;8.02;5.88;;;;;;;5.99;81.84;99660.16;5035818;28;20063;-72
2021/05/07 03:31:44;;;;;;;10.70;6.50;;;;;;;6.13;82.02;99665.47;5036128;28;20037;-71
2021/05/07 03:34:11;;;;;;;11.60;7.22;;;;;;;6.07;81.28;99661.41;5052295;28;20086;-70
2021/05/07 03:36:38;;;;;;;7.28;6.38;;;;;;;6.08;80.61;99662.28;5042670;28;20641;-71
2021/05/07 03:39:05;;;;;;;12.85;6.72;;;;;;;6.18;79.88;99666.06;5044434;28;20075;-71
2021/05/07 03:41:31;;;;;;;8.77;6.38;;;;;;;6.09;80.29;99672.63;5064652;28;20087;-70
2021/05/07 03:43:58;;;;;;;7.68;6.13;;;;;;;6.26;78.98;99663.84;5063280;28;20871;-71
2021/05/07 03:46:25;;;;;;;10.75;6.70;;;;;;;6.36;77.31;99672.00;5041538;28;20175;-72
2021/05/07 03:48:52;;;;;;;8.13;6.07;;;;;;;6.58;76.20;99669.03;5046301;28;20049;-71
2021/05/07 03:51:18;;;;;;;8.52;6.20;;;;;;;6.79;76.84;99672.97;5035687;28;20048;-70
2021/05/07 03:53:45;;;;;;;16.70;6.53;;;;;;;6.77;76.22;99677.47;5047290;28;20045;-72
2021/05/07 03:56:12;;;;;;;11.38;6.97;;;;;;;6.73;77.05;99675.97;5061640;28;20602;-71
2021/05/07 03:58:39;;;;;;;9.80;5.72;;;;;;;6.67;76.66;99688.56;5053149;28;20458;-71
2021/05/07 04:01:08;;;;;;;11.93;6.75;;;;;;;6.60;76.29;99688.91;5049867;28;20053;-71
2021/05/07 04:03:35;;;;;;;9.90;6.75;;;;;;;6.64;76.19;99684.34;5050549;28;20045;-72
2021/05/07 04:06:02;;;;;;;8.65;6.07;;;;;;;6.68;76.09;99690.25;5036931;28;20601;-71
2021/05/07 04:08:31;;;;;;;9.52;6.32;;;;;;;6.81;75.70;99705.16;5050602;28;20049;-72
2021/05/07 04:11:18;;;;;;;9.60;6.53;;;;;;;6.91;74.72;99699.38;5045261;28;20136;-71
2021/05/07 04:13:46;;;;;;;;;;;;;;;6.93;75.02;99706.19;5051821;28;20072;-72
2021/05/07 04:16:12;;;;;;;11.55;7.03;;;;;;;6.97;73.80;99705.06;5058735;28;19986;-72
2021/05/07 04:18:41;;;;;;;12.25;6.47;;;;;;;7.18;73.83;99712.59;5053463;28;20069;-73
2021/05/07 04:21:08;;;;;;;10.77;6.70;;;;;;;7.20;73.82;99710.72;5059983;28;20105;-74
2021/05/07 04:23:38;;;;;;;14.02;8.52;;;;;;;7.17;72.27;99714.38;5036803;28;20039;-71
2021/05/07 04:26:04;;;;;;;13.43;8.75;;;;;;;7.15;70.74;99712.78;5065046;28;20060;-71
2021/05/07 04:28:31;;;;;;;16.23;10.40;;;;;;;7.21;69.47;99713.28;5055281;28;20056;-71
2021/05/07 04:30:58;;;;;;;17.30;10.45;;;;;;;7.22;69.63;99720.19;5058603;28;20045;-72
2021/05/07 04:33:24;;;;;;;14.80;9.55;;;;;;;7.19;68.75;99722.13;5066764;28;20065;-71
2021/05/07 04:35:51;;;;;;;15.07;9.75;;;;;;;7.18;69.16;99725.69;5047784;28;20074;-70
2021/05/07 04:38:18;;;;;;;12.73;8.70;;;;;;;7.10;69.52;99726.13;5042490;28;20076;-69
2021/05/07 04:40:44;;;;;;;15.02;10.10;;;;;;;7.11;70.68;99722.56;5042091;28;20361;-69
2021/05/07 04:43:11;;;;;;;14.93;9.80;;;;;;;7.33;70.03;99725.59;5052323;28;20156;-69
2021/05/07 04:45:38;;;;;;;19.90;10.20;;;;;;;7.37;70.01;99728.88;5032684;28;20052;-70
2021/05/07 04:48:14;;;;;;;14.10;9.75;;;;;;;7.43;70.11;99739.00;5046082;28;20057;-70
2021/05/07 04:50:42;;;;;;;11.95;8.40;;;;;;;7.52;69.86;99735.84;5046338;28;20089;-69
2021/05/07 04:53:08;;;;;;;13.07;7.85;;;;;;;7.49;67.61;99741.25;5058359;28;20050;-70
2021/05/07 04:55:35;;;;;;;13.32;6.63;;;;;;;7.53;67.30;99748.00;5041711;28;20767;-68
2021/05/07 04:58:02;;;;;;;8.93;6.53;;;;;;;7.64;66.91;99736.84;5046748;28;20668;-69
2021/05/07 05:00:29;;;;;;;12.13;6.60;;;;;;;7.66;66.53;99755.97;5045205;28;20123;-69
2021/05/07 05:02:56;;;;;;;10.35;6.00;;;;;;;7.42;66.95;99755.63;5051263;28;20106;-70
2021/05/07 05:05:23;;;;;;;8.80;5.43;;;;;;;7.49;65.99;99766.59;5035762;28;21157;-72
2021/05/07 05:07:52;;;;;;;13.63;5.88;;;;;;;7.45;65.90;99771.19;5045070;28;20096;-68
2021/05/07 05:10:19;;;;;;;10.30;5.90;;;;;;;7.46;66.38;99774.63;5033164;28;20052;-69
2021/05/07 05:12:46;;;;;;;12.43;6.57;;;;;;;7.29;67.63;99778.25;5036381;28;20073;-68
2021/05/07 05:15:14;;;;;;;12.27;6.47;;;;;;;7.31;68.45;99784.25;5047966;28;20048;-69
2021/05/07 05:17:41;;;;;;;10.55;5.47;;;;;;;7.18;68.30;99778.88;5039559;28;20060;-70
2021/05/07 05:20:08;;;;;;;8.18;4.82;;;;;;;7.09;67.75;99789.88;5028731;28;20136;-69
2021/05/07 05:22:35;;;;;;;8.52;4.00;;;;;;;6.97;65.80;99796.66;5028302;28;20523;-68
2021/05/07 05:25:05;;;;;;;11.90;3.78;;;;;;;6.65;65.58;99793.25;5047654;28;20079;-69
2021/05/07 05:27:33;;;;;;;8.40;3.70;;;;;;;6.63;65.44;99797.75;5046084;28;20118;-69
2021/05/07 05:29:59;;;;;;;9.05;3.85;;;;;;;6.28;66.78;99805.75;5051804;28;20053;-69
2021/05/07 05:32:26;;;;;;;11.13;3.60;;;;;;;6.41;67.67;99810.31;5049360;28;20624;-68
2021/05/07 05:34:54;;;;;;;5.75;3.42;;;;;;;6.30;68.64;99810.88;5048895;28;20072;-69
2021/05/07 05:37:21;;;;;;;7.10;3.65;;;;;;;6.31;68.61;99817.81;5049885;28;20065;-68
2021/05/07 05:39:48;;;;;;;7.88;3.38;;;;;;;6.15;69.95;99817.78;5058005;28;20053;-70
2021/05/07 05:42:34;;;;;;;9.82;3.92;;;;;;;6.01;71.62;99826.34;5046513;28;20055;-69
2021/05/07 05:45:01;;;;;;;6.13;3.42;;;;;;;6.06;71.59;99819.13;5027212;28;20041;-70
2021/05/07 05:47:28;;;;;;;13.32;3.70;;;;;;;6.22;72.47;99821.75;5030957;28;20128;-69
2021/05/07 05:49:57;;;;;;;9.20;3.40;;;;;;;6.16;71.85;99822.06;5046761;28;20049;-70
2021/05/07 05:52:24;;;;;;;7.60;4.07;;;;;;;5.98;72.42;99830.88;5047550;28;20154;-70
2021/05/07 05:54:51;;;;;;;6.78;2.67;;;;;;;5.79;72.67;99823.16;5044698;28;20055;-69
2021/05/07 05:57:20;;;;;;;8.90;2.97;;;;;;;5.98;71.17;99825.66;5019816;28;20119;-69
2021/05/07 05:59:49;;;;;;;6.72;2.70;;;;;;;6.00;72.81;99829.91;5068473;22;20310;-75
2021/05/07 06:02:19;;;;;;;11.43;3.25;;;;;;;6.00;72.89;99834.28;5048123;28;20049;-74
2021/05/07 06:04:47;;;;;;;10.20;2.70;;;;;;;6.07;72.25;99836.47;5056927;28;20215;-73
2021/05/07 06:07:13;;;;;;;6.18;2.95;;;;;;;6.01;72.14;99822.91;5054366;28;20132;-76
2021/05/07 06:09:40;;;;;;;6.85;2.38;;;;;;;6.11;71.49;99818.03;5060042;28;20106;-76
2021/05/07 06:12:07;;;;;;;8.43;2.72;;;;;;;6.28;72.45;99823.19;5064719;28;20103;-76
2021/05/07 06:14:34;;;;;;;12.52;2.90;;;;;;;6.32;71.37;99828.19;5065507;28;20040;-76
2021/05/07 06:17:07;;;;;;;14.10;5.13;;;;;;;6.54;69.62;99827.00;5062824;28;20502;-74
2021/05/07 06:19:34;;;;;;;13.57;3.10;;;;;;;6.80;69.61;99836.03;5045261;28;20553;-76
2021/05/07 06:22:01;;;;;;;14.48;3.33;;;;;;;6.82;69.54;99837.63;5062007;28;20128;-75
2021/05/07 06:24:28;;;;;;;14.98;3.83;;;;;;;6.75;69.87;99836.25;5068907;28;20054;-75
2021/05/07 06:26:55;;;;;;;12.90;3.28;;;;;;;6.65;69.53;99844.72;5062928;28;20530;-75
2021/05/07 06:29:21;;;;;;;15.27;2.67;;;;;;;6.39;70.05;99846.13;5044984;28;20103;-75
2021/05/07 06:31:48;;;;;;;6.20;2.65;;;;;;;6.39;71.30;99849.59;5065879;28;20140;-77
2021/05/07 06:34:15;;;;;;;17.65;2.92;;;;;;;6.79;70.18;99845.63;5073216;28;20134;-74
2021/05/07 06:36:42;;;;;;;8.63;2.35;;;;;;;6.69;69.09;99851.47;5060386;28;20060;-74
2021/05/07 06:39:08;;;;;;;12.68;2.55;;;;;;;6.45;70.67;99849.28;5046554;28;20638;-75
2021/05/07 06:41:35;;;;;;;9.75;1.95;;;;;;;6.43;70.61;99851.13;5066000;28;20053;-74
2021/05/07 06:44:03;;;;;;;6.32;2.25;;;;;;;6.60;71.38;99858.88;5067698;28;20084;-75
2021/05/07 06:46:30;;;;;;;7.18;2.63;;;;;;;6.11;71.62;99860.69;5059564;28;20053;-75
2021/05/07 06:48:56;;;;;;;14.90;3.53;;;;;;;6.29;75.10;99858.84;5047231;28;20047;-76
2021/05/07 06:51:23;;;;;;;6.50;2.13;;;;;;;6.47;74.50;99860.47;5070348;28;20072;-75
2021/05/07 06:53:50;;;;;;;14.00;3.00;;;;;;;6.59;76.19;99864.22;5064543;28;20071;-74
2021/05/07 06:56:20;;;;;;;6.82;2.05;;;;;;;6.18;75.22;99869.06;5049615;28;20072;-75
2021/05/07 06:58:50;;;;;;;5.50;2.75;;;;;;;5.77;77.92;99880.69;5057575;28;20048;-73
2021/05/07 07:01:17;;;;;;;12.73;2.72;;;;;;;5.64;77.84;99877.00;5060748;28;21308;-75
2021/05/07 07:03:43;;;;;;;7.55;2.08;;;;;;;5.49;77.84;99890.81;5068211;28;20089;-75
2021/05/07 07:06:10;;;;;;;6.75;2.08;;;;;;;5.60;78.14;99891.16;5068473;28;20063;-75
2021/05/07 07:08:37;;;;;;;13.75;2.83;;;;;;;5.58;79.99;99895.56;5053460;28;20131;-77
2021/05/07 07:11:04;;;;;;;7.05;2.30;;;;;;;5.54;78.94;99900.13;5050469;28;20056;-76
2021/05/07 07:13:31;;;;;;;10.90;2.63;;;;;;;5.04;79.46;99903.44;5058345;28;20086;-75
2021/05/07 07:15:58;;;;;;;8.80;2.40;;;;;;;4.85;82.30;99901.75;5066931;28;20033;-75
2021/05/07 07:18:25;;;;;;;5.88;2.22;;;;;;;4.87;83.72;99908.59;5070608;28;20449;-75
2021/05/07 07:20:53;;;;;;;12.05;2.50;;;;;;;4.71;84.76;99905.00;5086050;28;20060;-75
2021/05/07 07:23:20;;;;;;;4.75;2.10;;;;;;;4.80;83.85;99904.59;5074035;28;20079;-75
2021/05/07 07:25:47;;;;;;;4.25;2.05;;;;;;;5.01;83.96;99905.34;5066534;28;20119;-76
2021/05/07 07:28:17;;;;;;;10.15;2.40;;;;;;;4.96;86.41;99908.19;5066378;28;20060;-75
2021/05/07 07:30:47;;;;;;;12.27;2.67;;;;;;;4.79;86.16;99913.31;5061650;28;20056;-75
2021/05/07 07:33:14;;;;;;;9.25;3.63;;;;;;;4.78;88.68;99914.25;5059630;28;20160;-73
2021/05/07 07:35:41;;;;;;;6.72;2.38;;;;;;;4.83;89.15;99915.72;5070354;28;20146;-75
2021/05/07 07:38:08;;;;;;;9.15;2.42;;;;;;;4.68;88.97;99920.78;5066658;28;20206;-75
2021/05/07 07:40:34;;;;;;;8.15;2.55;;;;;;;4.80;87.60;99917.63;5069601;28;20048;-75
2021/05/07 07:43:01;;;;;;;7.97;3.08;;;;;;;4.70;89.32;99919.81;5069641;28;20047;-74
2021/05/07 07:45:28;;;;;;;5.40;2.13;;;;;;;4.69;89.18;99923.34;5066311;28;20048;-75
2021/05/07 07:47:55;;;;;;;8.38;3.20;;;;;;;4.63;88.54;99930.59;5071228;28;20556;-74
2021/05/07 07:50:23;;;;;;;12.07;3.22;;;;;;;4.34;91.36;99935.34;5065908;28;20094;-74
2021/05/07 07:52:50;;;;;;;5.55;2.72;;;;;;;4.36;90.91;99943.94;5069110;28;20056;-75
2021/05/07 07:55:17;;;;;;;10.50;3.60;;;;;;;4.26;92.92;99937.44;5063780;28;20080;-75
2021/05/07 07:57:43;;;;;;;5.20;2.78;;;;;;;4.14;92.75;99948.38;5073714;28;20060;-75
2021/05/07 08:00:10;;;;;;;7.80;3.10;;;;;;;4.14;95.88;99940.56;5070524;28;20086;-75
2021/05/07 08:02:37;;;;;;;11.13;3.80;;;;;;;4.36;96.75;99943.94;5069647;28;20498;-76
2021/05/07 08:05:05;;;;;;;6.47;3.28;;;;;;;4.31;94.85;99949.34;5056432;28;20045;-75
2021/05/07 08:07:32;;;;;;;9.77;3.83;;;;;;;4.45;97.62;99947.91;5064261;28;20401;-75
2021/05/07 08:09:58;;;;;;;12.50;3.53;;;;;;;4.27;95.74;99963.41;5073085;28;20068;-75
2021/05/07 08:12:25;;;;;;;10.27;3.45;;;;;;;4.29;94.88;99966.81;5069649;28;20049;-74
2021/05/07 08:14:52;;;;;;;8.63;3.25;;;;;;;4.20;95.59;99977.66;5068251;28;20045;-75
2021/05/07 08:17:19;;;;;;;7.22;3.20;;;;;;;3.86;97.01;99983.41;5065591;28;20590;-75
2021/05/07 08:19:50;;;;;;;9.80;3.28;;;;;;;3.74;96.52;99984.78;5066753;28;20100;-74
2021/05/07 08:22:17;;;;;;;12.50;3.15;;;;;;;3.68;97.25;99989.38;5043522;28;20143;-74
2021/05/07 08:24:44;;;;;;;7.53;3.85;;;;;;;3.68;97.76;99990.22;5052590;28;20040;-74
2021/05/07 08:27:11;;;;;;;10.77;4.65;;;;;;;3.69;98.40;99994.56;5042095;28;20056;-74
2021/05/07 08:29:38;;;;;;;11.85;3.65;;;;;;;3.90;99.59;100000.63;5068574;28;20506;-76
2021/05/07 08:32:05;;;;;;;14.30;4.72;;;;;;;3.84;99.52;100008.69;5079800;28;20131;-75
2021/05/07 08:34:32;;;;;;;8.82;3.47;;;;;;;3.78;100.00;100011.53;5064170;28;20623;-74
2021/05/07 08:36:59;;;;;;;8.98;3.58;;;;;;;3.88;100.00;100012.84;5066542;28;20044;-74
2021/05/07 08:39:26;;;;;;;13.10;3.58;;;;;;;4.00;100.00;100025.34;5070656;28;20058;-75
2021/05/07 08:41:52;;;;;;;6.88;2.50;;;;;;;3.78;97.99;100027.13;5061563;28;20639;-75
2021/05/07 08:44:19;;;;;;;10.73;3.30;;;;;;;3.88;100.00;100033.69;5066420;28;20442;-75
2021/05/07 08:46:46;;;;;;;8.88;3.17;;;;;;;3.80;99.81;100038.34;5067410;28;20533;-75
2021/05/07 08:49:16;;;;;;;5.93;2.15;;;;;;;3.65;98.39;100047.63;5069984;28;20056;-75
2021/05/07 08:51:43;;;;;;;5.00;2.35;;;;;;;3.50;98.66;100054.28;5070059;28;20555;-75
2021/05/07 08:54:10;;;;;;;7.05;2.20;;;;;;;3.15;99.58;100058.25;5060383;28;20126;-75
2021/05/07 08:56:37;;;;;;;5.05;1.90;;;;;;;3.22;100.00;100067.50;5065269;28;20127;-75
2021/05/07 08:59:04;;;;;;;8.80;3.22;;;;;;;3.11;100.00;100074.88;5045861;28;20151;-75
2021/05/07 09:01:44;;;;;;;4.55;2.60;;;;;;;3.02;100.00;100089.06;5067563;28;20113;-74
2021/05/07 09:04:14;;;;;;;6.82;3.00;;;;;;;3.24;100.00;100090.84;5064573;28;20064;-73
2021/05/07 09:06:48;;;;;;;9.90;4.05;;;;;;;3.18;100.00;100097.13;5060616;28;20054;-75
2021/05/07 09:09:25;;;;;;;7.93;4.60;;;;;;;2.98;100.00;100108.25;5065054;28;20074;-73
2021/05/07 09:12:00;;;;;;;8.95;3.72;;;;;;;3.12;100.00;100112.97;5067582;28;20098;-75
2021/05/07 09:14:28;;;;;;;7.30;2.75;;;;;;;3.09;100.00;100117.41;5043936;28;20151;-74
2021/05/07 09:17:03;;;;;;;4.95;2.70;;;;;;;2.88;100.00;100127.69;5065051;28;20048;-73
2021/05/07 09:19:31;;;;;;;4.60;2.22;;;;;;;2.63;99.78;100129.44;5062949;28;20124;-74
2021/05/07 09:21:59;;;;;;;4.13;2.45;;;;;;;2.62;100.00;100138.16;5063824;28;20070;-73
2021/05/07 09:24:33;;;;;;;5.93;2.80;;;;;;;2.49;100.00;100151.53;5067644;28;20120;-78
2021/05/07 09:27:05;;;;;;;8.32;3.42;;;;;;;2.27;100.00;100154.00;5070344;28;20052;-78
2021/05/07 09:29:32;;;;;;;5.40;2.88;;;;;;;2.33;100.00;100154.69;5078799;28;20045;-77
2021/05/07 09:32:01;;;;;;;5.28;3.28;;;;;;;2.28;100.00;100160.03;5066590;28;20060;-74
2021/05/07 09:34:34;;;;;;;6.90;3.22;;;;;;;2.47;100.00;100170.66;5080913;28;20048;-75
2021/05/07 09:37:01;;;;;;;9.98;3.53;;;;;;;2.45;100.00;100167.28;5063859;28;20040;-74
2021/05/07 09:39:27;;;;;;;6.65;3.40;;;;;;;2.49;100.00;100172.34;5046993;28;20433;-72
2021/05/07 09:41:54;;;;;;;8.65;3.05;;;;;;;2.38;100.00;100181.38;5058773;28;20040;-73
2021/05/07 09:44:25;;;;;;;4.22;2.80;;;;;;;2.28;100.00;100180.81;5080843;28;20064;-73
2021/05/07 09:46:54;;;;;;;8.27;4.05;;;;;;;2.29;100.00;100179.91;5067880;28;20090;-73
2021/05/07 09:49:29;;;;;;;8.85;3.70;;;;;;;2.20;100.00;100190.59;5069274;28;20129;-73
2021/05/07 09:51:57;;;;;;;;;;;;;;;2.09;100.00;100198.72;5049494;28;20065;-73
2021/05/07 09:54:24;;;;;;;6.50;3.40;;;;;;;2.26;100.00;100201.66;5052569;28;19932;-73
2021/05/07 09:56:51;;;;;;;5.93;3.50;;;;;;;2.36;100.00;100203.97;5031563;28;20783;-73
2021/05/07 09:59:19;;;;;;;6.95;3.10;;;;;;;2.38;100.00;100213.38;5038989;28;20410;-72
2021/05/07 10:01:46;;;;;;;7.55;3.35;;;;;;;2.78;100.00;100215.53;5062844;28;20060;-74
2021/05/07 10:04:14;;;;;;;7.57;2.78;;;;;;;2.99;100.00;100216.56;5059521;28;20705;-74
2021/05/07 10:06:41;;;;;;;6.85;3.10;;;;;;;3.23;100.00;100216.59;5064105;28;20033;-74
2021/05/07 10:09:09;;;;;;;3.60;2.38;;;;;;;3.75;98.48;100227.75;5056049;28;20160;-72
2021/05/07 10:11:41;;;;;;;4.55;2.10;;;;;;;3.84;97.22;100224.78;5062773;28;20048;-74
2021/05/07 10:14:11;;;;;;;2.90;1.90;;;;;;;4.00;96.98;100225.06;5064750;28;20404;-73
2021/05/07 10:16:39;;;;;;;6.78;1.85;;;;;;;3.88;95.81;100231.59;5059163;28;20041;-72
2021/05/07 10:19:11;;;;;;;7.45;2.17;;;;;;;3.65;97.64;100234.19;5043186;28;20049;-72
2021/05/07 10:21:46;;;;;;;4.28;1.80;;;;;;;3.82;98.60;100242.22;5057603;28;20084;-72
2021/05/07 10:24:18;;;;;;;6.93;1.90;;;;;;;4.04;98.38;100240.50;5061196;28;20106;-74
2021/05/07 10:26:53;;;;;;;4.22;1.52;;;;;;;4.31;96.11;100232.53;5059630;28;20044;-73
2021/05/07 10:29:22;;;;;;;11.75;4.38;;;;;;;4.94;96.28;100241.25;5063576;28;20132;-73
2021/05/07 10:31:51;;;;;;;4.28;1.20;;;;;;;5.10;95.24;100238.03;5059748;28;20127;-72
2021/05/07 10:34:19;;;;;;;3.60;1.10;;;;;;;4.66;94.01;100232.88;5064830;28;20132;-73
2021/05/07 10:37:02;;;;;;;3.30;1.48;;;;;;;4.34;94.64;100237.63;5054571;28;20576;-72
2021/05/07 10:39:30;;;;;;;5.18;1.50;;;;;;;4.46;96.36;100246.72;5066905;28;20452;-73
2021/05/07 10:42:02;;;;;;;2.13;1.13;;;;;;;4.89;94.45;100237.16;5063569;28;20048;-74
2021/05/07 10:44:40;;;;;;;1.85;1.02;;;;;;;5.51;91.60;100226.63;5067518;28;20547;-73
2021/05/07 10:47:09;;;;;;;2.15;1.00;;;;;;;5.45;91.46;100236.47;5065191;28;20370;-73
2021/05/07 10:49:38;;;;;;;1.42;1.08;;;;;;;6.33;91.26;100237.66;5070745;28;20081;-72
2021/05/07 10:52:06;;;;;;;0.77;0.77;;;;;;;6.99;89.67;100237.06;5068088;28;20383;-74
2021/05/07 10:54:43;;;;;;;3.88;1.58;;;;;;;6.78;88.75;100240.75;5073816;28;20048;-73
2021/05/07 10:57:30;;;;;;;3.70;1.27;;;;;;;7.48;86.70;100245.03;5074338;28;20135;-73
2021/05/07 10:59:59;;;;;;;2.17;1.10;;;;;;;7.64;85.33;100250.31;5059615;28;20474;-73
2021/05/07 11:02:26;;;;;;;2.00;1.20;;;;;;;7.70;84.43;100256.97;5049319;28;20056;-73
2021/05/07 11:04:53;;;;;;;2.55;1.20;;;;;;;7.39;81.56;100258.59;5087870;28;20135;-73
2021/05/07 11:07:32;;;;;;;1.15;1.00;;;;;;;7.56;84.17;100255.09;5054456;28;20075;-73
2021/05/07 11:10:07;;;;;;;1.30;0.80;;;;;;;8.13;80.56;100256.38;5065744;28;20122;-73
2021/05/07 11:12:37;;;;;;;3.63;1.17;;;;;;;8.26;78.68;100256.56;5062363;28;20132;-74
2021/05/07 11:15:05;;;;;;;2.28;1.50;;;;;;;8.27;79.84;100257.41;5064697;28;20080;-74
2021/05/07 11:17:32;;;;;;;3.38;1.40;;;;;;;8.99;78.77;100262.06;5059969;28;20091;-73
2021/05/07 11:20:02;;;;;;;4.03;1.30;;;;;;;9.01;76.78;100256.75;5062140;28;20110;-73
2021/05/07 11:22:28;;;;;;;3.85;1.30;;;;;;;8.91;77.05;100263.44;5065907;28;20563;-74
2021/05/07 11:24:55;;;;;;;3.40;1.30;;;;;;;8.51;76.15;100266.56;5070310;28;20055;-73
2021/05/07 11:27:25;;;;;;;4.43;1.27;;;;;;;8.52;77.01;100273.50;5061031;28;20473;-74
2021/05/07 11:30:04;;;;;;;2.15;1.35;;;;;;;8.69;75.32;100274.31;5065120;28;20067;-73
2021/05/07 11:32:31;;;;;;;5.45;2.20;;;;;;;8.44;76.37;100278.31;5071320;28;20449;-74
2021/05/07 11:35:04;;;;;;;6.70;2.08;;;;;;;7.70;77.83;100280.56;5069636;28;20095;-72
2021/05/07 11:37:31;;;;;;;6.68;2.03;;;;;;;8.23;77.12;100277.69;5069795;28;20151;-76
2021/05/07 11:40:02;;;;;;;5.43;2.17;;;;;;;8.31;77.96;100269.41;5066281;28;20515;-73
2021/05/07 11:42:33;;;;;;;10.45;1.85;;;;;;;8.26;75.54;100268.81;5081953;28;20079;-73